createdAt,value
2023-03-26T00:01:46.616Z,17.55
2023-03-26T00:04:14.026Z,13.02
2023-03-26T00:06:41.863Z,8.63
2023-03-26T00:09:13.245Z,11.27
2023-03-26T00:11:42.519Z,10.38
2023-03-26T00:14:14.117Z,11.20
2023-03-26T00:16:44.584Z,9.18
2023-03-26T00:19:11.899Z,12.57
2023-03-26T00:21:39.391Z,8.82
2023-03-26T00:24:11.910Z,10.65
2023-03-26T00:26:41.040Z,14.00
2023-03-26T00:29:09.834Z,16.70
2023-03-26T00:31:41.097Z,8.38
2023-03-26T00:34:10.447Z,11.88
2023-03-26T00:36:38.140Z,7.32
2023-03-26T00:39:05.700Z,10.00
2023-03-26T00:41:43.191Z,9.25
2023-03-26T00:44:10.838Z,10.02
2023-03-26T00:46:38.271Z,7.35
2023-03-26T00:49:05.687Z,5.82
2023-03-26T00:51:33.966Z,9.70
2023-03-26T00:54:01.524Z,7.57
2023-03-26T00:56:28.810Z,8.48
2023-03-26T00:58:57.657Z,7.78
2023-03-26T01:01:30.426Z,8.83
2023-03-26T01:04:19.077Z,9.50
2023-03-26T01:06:46.999Z,7.93
2023-03-26T01:09:18.680Z,12.30
2023-03-26T01:11:48.232Z,6.60
2023-03-26T01:14:19.689Z,10.07
2023-03-26T01:16:55.931Z,7.32
2023-03-26T01:19:29.659Z,10.20
2023-03-26T01:21:58.972Z,9.85
2023-03-26T01:24:26.868Z,9.40
2023-03-26T01:27:09.666Z,7.97
2023-03-26T01:29:49.170Z,10.30
2023-03-26T01:32:40.926Z,12.70
2023-03-26T01:35:13.192Z,10.80
2023-03-26T01:38:01.515Z,11.95
2023-03-26T01:40:42.924Z,15.57
2023-03-26T01:43:13.286Z,13.25
2023-03-26T01:45:44.802Z,13.70
2023-03-26T01:48:13.282Z,11.73
2023-03-26T01:50:40.318Z,14.65
2023-03-26T01:53:11.287Z,11.15
2023-03-26T01:56:13.620Z,17.05
2023-03-26T01:58:43.750Z,11.70
2023-03-26T02:01:37.750Z,12.13
2023-03-26T02:04:36.270Z,10.18
2023-03-26T02:07:09.336Z,11.88
2023-03-26T02:09:45.931Z,9.15
2023-03-26T02:12:14.966Z,12.85
2023-03-26T02:14:44.153Z,9.63
2023-03-26T02:17:11.660Z,10.13
2023-03-26T02:19:42.322Z,10.45
2023-03-26T02:22:11.361Z,11.60
2023-03-26T02:24:39.762Z,8.82
2023-03-26T02:27:07.793Z,9.63
2023-03-26T02:29:42.704Z,13.68
2023-03-26T02:32:14.622Z,8.27
2023-03-26T02:34:43.138Z,9.55
2023-03-26T02:37:10.449Z,11.15
2023-03-26T02:39:41.008Z,13.27
2023-03-26T02:42:16.204Z,10.85
2023-03-26T02:44:48.193Z,13.38
2023-03-26T02:47:18.223Z,10.48
2023-03-26T02:49:54.684Z,12.18
2023-03-26T02:52:54.033Z,8.98
2023-03-26T02:55:21.556Z,10.90
2023-03-26T03:00:22.825Z,12.13
2023-03-26T03:02:50.535Z,8.70
2023-03-26T03:05:33.186Z,10.55
2023-03-26T03:08:18.582Z,11.45
2023-03-26T03:11:12.195Z,9.60
2023-03-26T03:13:46.781Z,12.05
2023-03-26T03:16:22.026Z,9.20
2023-03-26T03:18:54.326Z,8.45
2023-03-26T03:21:31.884Z,8.48
2023-03-26T03:24:00.071Z,8.02
2023-03-26T03:26:30.034Z,8.73
2023-03-26T03:29:01.374Z,12.70
2023-03-26T03:31:29.048Z,8.70
2023-03-26T03:34:02.315Z,7.22
2023-03-26T03:36:33.953Z,10.65
2023-03-26T03:39:10.869Z,6.72
2023-03-26T03:41:38.248Z,11.13
2023-03-26T03:44:11.052Z,10.30
2023-03-26T03:46:38.753Z,7.03
2023-03-26T03:49:05.856Z,7.78
2023-03-26T03:51:37.149Z,8.02
2023-03-26T03:54:18.151Z,8.98
2023-03-26T03:56:45.784Z,9.23
2023-03-26T03:59:28.707Z,8.88
2023-03-26T04:01:56.398Z,9.40
2023-03-26T04:04:32.807Z,14.15
2023-03-26T04:07:02.749Z,11.18
2023-03-26T04:09:50.322Z,12.75
2023-03-26T04:12:19.897Z,12.20
2023-03-26T04:14:56.081Z,10.65
2023-03-26T04:17:23.651Z,14.30
2023-03-26T04:19:55.005Z,9.80
2023-03-26T04:22:36.483Z,12.30
2023-03-26T04:25:07.626Z,9.73
2023-03-26T04:27:50.514Z,12.52
2023-03-26T04:30:28.398Z,11.43
2023-03-26T04:33:06.516Z,11.82
2023-03-26T04:35:38.230Z,10.30
2023-03-26T04:38:11.258Z,11.85
2023-03-26T04:40:42.384Z,12.88
2023-03-26T04:43:35.779Z,10.27
2023-03-26T04:46:03.415Z,8.65
2023-03-26T04:48:35.284Z,6.95
2023-03-26T04:51:02.652Z,7.03
2023-03-26T04:53:30.101Z,6.00
2023-03-26T04:56:31.448Z,4.70
2023-03-26T04:59:30.040Z,4.97
2023-03-26T05:01:59.918Z,3.47
2023-03-26T05:04:29.608Z,3.67
2023-03-26T05:06:58.480Z,2.60
2023-03-26T05:09:41.493Z,3.60
2023-03-26T05:12:14.947Z,3.80
2023-03-26T05:14:51.857Z,3.80
2023-03-26T05:17:30.978Z,3.30
2023-03-26T05:19:58.882Z,4.10
2023-03-26T05:22:25.941Z,3.47
2023-03-26T05:25:19.961Z,2.13
2023-03-26T05:27:47.545Z,2.53
2023-03-26T05:30:17.073Z,2.75
2023-03-26T05:32:49.491Z,1.52
2023-03-26T05:35:20.798Z,1.85
2023-03-26T05:37:49.708Z,1.63
2023-03-26T05:40:21.348Z,3.33
2023-03-26T05:42:53.834Z,2.10
2023-03-26T05:45:27.047Z,2.03
2023-03-26T05:47:55.920Z,2.28
2023-03-26T05:50:25.967Z,3.08
2023-03-26T05:52:58.208Z,3.15
2023-03-26T05:55:47.280Z,4.85
2023-03-26T05:58:34.326Z,1.90
2023-03-26T06:01:20.790Z,1.85
2023-03-26T06:04:20.469Z,2.22
2023-03-26T06:07:02.214Z,2.35
2023-03-26T06:09:29.629Z,1.20
2023-03-26T06:11:56.924Z,1.33
2023-03-26T06:14:24.059Z,2.13
2023-03-26T06:17:13.843Z,3.05
2023-03-26T06:19:59.842Z,2.13
2023-03-26T06:22:36.751Z,3.38
2023-03-26T06:25:30.241Z,7.82
2023-03-26T06:28:07.256Z,5.78
2023-03-26T06:30:46.716Z,4.57
2023-03-26T06:33:31.301Z,6.43
2023-03-26T06:36:02.207Z,4.32
2023-03-26T06:38:29.922Z,5.70
2023-03-26T06:41:03.940Z,3.28
2023-03-26T06:43:37.850Z,5.82
2023-03-26T06:46:24.457Z,3.17
2023-03-26T06:49:10.325Z,3.50
2023-03-26T06:54:08.599Z,3.83
2023-03-26T06:56:57.326Z,3.83
2023-03-26T07:00:05.448Z,5.60
2023-03-26T07:02:51.100Z,2.20
2023-03-26T07:05:38.228Z,3.42
2023-03-26T07:08:11.332Z,3.50
2023-03-26T07:10:57.701Z,3.25
2023-03-26T07:13:47.595Z,4.20
2023-03-26T07:16:33.505Z,3.35
2023-03-26T07:19:06.291Z,5.95
2023-03-26T07:21:36.936Z,3.08
2023-03-26T07:24:13.834Z,5.15
2023-03-26T07:27:17.227Z,3.72
2023-03-26T07:30:09.380Z,3.78
2023-03-26T07:33:03.670Z,5.03
2023-03-26T07:35:46.888Z,2.53
2023-03-26T07:38:51.748Z,5.40
2023-03-26T07:41:45.368Z,3.55
2023-03-26T07:45:01.034Z,9.27
2023-03-26T07:47:53.685Z,3.92
2023-03-26T07:50:40.991Z,4.13
2023-03-26T07:53:22.964Z,6.30
2023-03-26T07:56:13.762Z,5.47
2023-03-26T07:59:16.579Z,7.53
2023-03-26T08:02:27.841Z,9.63
2023-03-26T08:05:19.825Z,8.65
2023-03-26T08:09:20.668Z,10.55
2023-03-26T08:12:37.663Z,10.25
2023-03-26T08:15:32.724Z,3.63
2023-03-26T08:18:10.559Z,5.78
2023-03-26T08:20:43.924Z,6.82
2023-03-26T08:23:13.872Z,7.00
2023-03-26T08:25:51.408Z,12.55
2023-03-26T08:28:27.847Z,11.40
2023-03-26T08:30:55.805Z,3.55
2023-03-26T08:33:27.470Z,3.90
2023-03-26T08:35:55.069Z,4.85
2023-03-26T08:38:22.591Z,5.10
2023-03-26T08:41:12.609Z,6.90
2023-03-26T08:46:58.021Z,5.07
2023-03-26T08:49:43.162Z,2.40
2023-03-26T08:52:35.638Z,5.25
2023-03-26T08:55:14.922Z,8.80
2023-03-26T08:58:08.968Z,2.85
2023-03-26T09:00:55.069Z,2.83
2023-03-26T09:03:44.678Z,2.33
2023-03-26T09:06:32.483Z,1.48
2023-03-26T09:08:59.979Z,4.75
2023-03-26T09:11:45.544Z,2.40
2023-03-26T09:14:34.264Z,1.15
2023-03-26T09:17:44.713Z,1.38
2023-03-26T09:20:39.561Z,7.68
2023-03-26T09:23:28.400Z,2.15
2023-03-26T09:26:08.346Z,2.90
2023-03-26T09:28:50.776Z,1.98
2023-03-26T09:31:59.664Z,7.50
2023-03-26T09:34:31.369Z,5.45
2023-03-26T09:37:22.454Z,2.85
2023-03-26T09:40:18.740Z,3.03
2023-03-26T09:43:40.339Z,4.10
2023-03-26T09:46:46.872Z,2.53
2023-03-26T09:49:34.188Z,1.27
2023-03-26T09:52:24.464Z,4.38
2023-03-26T09:54:57.589Z,1.45
2023-03-26T09:58:09.207Z,1.38
2023-03-26T10:00:42.588Z,1.73
2023-03-26T10:03:31.610Z,1.20
2023-03-26T10:06:07.116Z,4.07
2023-03-26T10:08:47.596Z,2.30
2023-03-26T10:11:18.669Z,1.02
2023-03-26T10:14:26.276Z,4.32
2023-03-26T10:17:19.664Z,2.30
2023-03-26T10:19:52.793Z,4.68
2023-03-26T10:22:28.267Z,2.20
2023-03-26T10:25:23.800Z,2.78
2023-03-26T10:28:03.459Z,5.78
2023-03-26T10:30:45.842Z,6.47
2023-03-26T10:33:30.813Z,4.90
2023-03-26T10:36:29.552Z,17.35
2023-03-26T10:39:36.709Z,5.97
2023-03-26T10:42:30.839Z,22.50
2023-03-26T10:45:19.086Z,20.63
2023-03-26T10:48:13.206Z,4.78
2023-03-26T10:51:13.322Z,2.70
2023-03-26T10:53:45.918Z,16.08
2023-03-26T10:56:34.879Z,9.52
2023-03-26T10:59:08.316Z,4.05
2023-03-26T11:01:42.170Z,11.90
2023-03-26T11:04:43.402Z,17.05
2023-03-26T11:07:35.474Z,10.85
2023-03-26T11:10:11.822Z,3.05
2023-03-26T11:12:47.815Z,4.30
2023-03-26T11:15:18.223Z,5.68
2023-03-26T11:18:01.063Z,2.65
2023-03-26T11:20:44.196Z,4.22
2023-03-26T11:23:35.952Z,4.10
2023-03-26T11:26:16.815Z,4.75
2023-03-26T11:29:03.915Z,6.78
2023-03-26T11:31:40.094Z,6.03
2023-03-26T11:34:19.003Z,6.57
2023-03-26T11:36:56.852Z,10.57
2023-03-26T11:39:29.626Z,8.65
2023-03-26T11:42:14.039Z,9.23
2023-03-26T11:44:54.328Z,2.38
2023-03-26T11:47:30.128Z,2.95
2023-03-26T11:49:59.811Z,11.68
2023-03-26T11:52:27.668Z,5.93
2023-03-26T11:54:58.507Z,3.47
2023-03-26T11:57:33.291Z,3.42
2023-03-26T12:00:16.889Z,0.98
2023-03-26T12:02:46.859Z,5.68
2023-03-26T12:05:21.917Z,5.30
2023-03-26T12:08:03.074Z,3.70
2023-03-26T12:10:38.014Z,2.63
2023-03-26T12:13:38.994Z,4.95
2023-03-26T12:16:18.810Z,2.92
2023-03-26T12:18:56.982Z,3.95
2023-03-26T12:21:24.745Z,2.75
2023-03-26T12:24:02.141Z,4.45
2023-03-26T12:26:48.851Z,3.75
2023-03-26T12:29:19.100Z,5.50
2023-03-26T12:31:49.551Z,2.95
2023-03-26T12:34:20.002Z,12.30
2023-03-26T12:37:07.701Z,7.50
2023-03-26T12:40:07.370Z,3.85
2023-03-26T12:44:50.125Z,6.28
2023-03-26T12:45:24.486Z,3.95
2023-03-26T12:48:02.411Z,3.58
2023-03-26T12:50:42.806Z,2.67
2023-03-26T12:53:41.671Z,4.22
2023-03-26T12:56:19.854Z,4.47
2023-03-26T12:59:15.783Z,3.13
2023-03-26T13:02:09.241Z,5.82
2023-03-26T13:04:58.453Z,3.30
2023-03-26T13:07:38.474Z,5.57
2023-03-26T13:10:09.542Z,4.88
2023-03-26T13:13:01.458Z,2.97
2023-03-26T13:15:52.910Z,1.30
2023-03-26T13:18:36.919Z,2.45
2023-03-26T13:21:12.990Z,0.68
2023-03-26T13:24:05.315Z,1.50
2023-03-26T13:27:11.182Z,1.15
2023-03-26T13:29:50.003Z,2.17
2023-03-26T13:32:44.552Z,1.20
2023-03-26T13:35:30.588Z,1.38
2023-03-26T13:38:14.817Z,1.13
2023-03-26T13:41:07.584Z,2.55
2023-03-26T13:43:38.422Z,4.78
2023-03-26T13:46:11.342Z,3.38
2023-03-26T13:48:56.286Z,3.28
2023-03-26T13:51:23.559Z,2.42
2023-03-26T13:53:56.810Z,2.53
2023-03-26T13:56:34.693Z,2.00
2023-03-26T13:59:12.281Z,1.55
2023-03-26T14:01:47.022Z,2.67
2023-03-26T14:04:20.771Z,2.50
2023-03-26T14:07:15.814Z,1.77
2023-03-26T14:09:49.798Z,2.22
2023-03-26T14:12:40.130Z,5.43
2023-03-26T14:15:16.447Z,1.65
2023-03-26T14:18:06.178Z,1.55
2023-03-26T14:20:58.441Z,1.83
2023-03-26T14:23:49.790Z,12.07
2023-03-26T14:26:33.417Z,45.30
2023-03-26T14:29:00.880Z,18.88
2023-03-26T14:31:41.422Z,4.43
2023-03-26T14:34:34.994Z,4.60
2023-03-26T14:37:28.071Z,5.10
2023-03-26T14:40:17.043Z,2.63
2023-03-26T14:43:09.358Z,2.63
2023-03-26T14:46:01.247Z,13.32
2023-03-26T14:48:45.703Z,2.72
2023-03-26T14:51:37.719Z,1.02
2023-03-26T14:54:17.273Z,4.03
2023-03-26T14:56:53.506Z,3.13
2023-03-26T14:59:42.445Z,3.65
2023-03-26T15:02:47.224Z,2.92
2023-03-26T15:05:37.107Z,3.40
2023-03-26T15:08:14.193Z,3.97
2023-03-26T15:11:03.329Z,2.38
2023-03-26T15:13:39.588Z,2.80
2023-03-26T15:16:13.275Z,2.95
2023-03-26T15:18:51.312Z,89.07
2023-03-26T15:21:51.246Z,97.95
2023-03-26T15:24:27.708Z,5.43
2023-03-26T15:27:43.100Z,7.30
2023-03-26T15:30:22.314Z,3.35
2023-03-26T15:33:05.237Z,16.23
2023-03-26T15:35:32.387Z,4.65
2023-03-26T15:38:20.912Z,2.75
2023-03-26T15:41:16.774Z,4.47
2023-03-26T15:44:23.680Z,7.85
2023-03-26T15:47:01.752Z,3.22
2023-03-26T15:49:53.782Z,3.33
2023-03-26T15:52:24.092Z,5.13
2023-03-26T15:55:27.775Z,2.65
2023-03-26T15:58:07.917Z,6.22
2023-03-26T16:00:44.301Z,6.53
2023-03-26T16:03:20.464Z,5.82
2023-03-26T16:06:28.325Z,13.10
2023-03-26T16:09:08.067Z,9.73
2023-03-26T16:11:58.543Z,4.97
2023-03-26T16:14:34.727Z,7.38
2023-03-26T16:17:08.596Z,6.43
2023-03-26T16:19:58.796Z,6.22
2023-03-26T16:22:42.781Z,8.63
2023-03-26T16:25:27.194Z,7.88
2023-03-26T16:28:11.617Z,9.30
2023-03-26T16:30:39.718Z,5.03
2023-03-26T16:33:17.699Z,10.57
2023-03-26T16:36:03.643Z,5.82
2023-03-26T16:39:07.304Z,14.18
2023-03-26T16:41:45.316Z,15.20
2023-03-26T16:44:49.624Z,12.63
2023-03-26T16:47:50.256Z,8.07
2023-03-26T16:53:24.287Z,15.38
2023-03-26T16:55:54.774Z,9.93
2023-03-26T16:58:38.363Z,16.42
2023-03-26T17:01:27.371Z,8.23
2023-03-26T17:03:57.783Z,17.95
2023-03-26T17:06:45.820Z,13.68
2023-03-26T17:09:31.666Z,10.45
2023-03-26T17:12:40.125Z,16.52
2023-03-26T17:15:28.768Z,11.23
2023-03-26T17:18:17.778Z,11.07
2023-03-26T17:21:09.558Z,8.65
2023-03-26T17:24:15.424Z,11.05
2023-03-26T17:27:16.115Z,12.77
2023-03-26T17:30:21.312Z,29.45
2023-03-26T17:32:59.093Z,10.32
2023-03-26T17:35:48.947Z,18.38
2023-03-26T17:38:16.223Z,12.65
2023-03-26T17:41:01.862Z,21.13
2023-03-26T17:43:36.841Z,15.20
2023-03-26T17:46:24.342Z,13.98
2023-03-26T17:49:03.335Z,11.85
2023-03-26T17:51:31.095Z,13.00
2023-03-26T17:54:00.350Z,16.00
2023-03-26T17:56:33.501Z,11.38
2023-03-26T17:59:11.739Z,14.65
2023-03-26T18:01:44.438Z,6.72
2023-03-26T18:04:19.853Z,9.25
2023-03-26T18:06:53.507Z,9.60
2023-03-26T18:09:39.400Z,12.15
2023-03-26T18:12:29.366Z,12.60
2023-03-26T18:15:13.368Z,13.75
2023-03-26T18:17:47.204Z,21.40
2023-03-26T18:20:28.414Z,12.30
2023-03-26T18:22:58.572Z,9.70
2023-03-26T18:25:34.684Z,24.05
2023-03-26T18:28:07.039Z,23.17
2023-03-26T18:30:49.152Z,25.92
2023-03-26T18:33:18.425Z,21.90
2023-03-26T18:35:52.528Z,35.10
2023-03-26T18:38:36.296Z,36.78
2023-03-26T18:41:15.454Z,34.97
2023-03-26T18:43:43.902Z,25.30
2023-03-26T18:46:17.811Z,25.20
2023-03-26T18:48:47.709Z,13.48
2023-03-26T18:51:22.649Z,17.60
2023-03-26T18:53:56.092Z,35.28
2023-03-26T18:56:37.535Z,24.98
2023-03-26T18:59:20.838Z,14.50
2023-03-26T19:01:50.023Z,16.33
2023-03-26T19:04:18.773Z,16.83
2023-03-26T19:06:47.215Z,22.67
2023-03-26T19:09:28.046Z,38.17
2023-03-26T19:12:06.709Z,17.98
2023-03-26T19:14:51.816Z,21.85
2023-03-26T19:17:21.561Z,16.25
2023-03-26T19:22:21.697Z,27.08
2023-03-26T19:24:55.335Z,21.08
2023-03-26T19:27:23.887Z,16.33
2023-03-26T19:29:52.081Z,23.58
2023-03-26T19:32:32.582Z,26.98
2023-03-26T19:35:04.262Z,24.83
2023-03-26T19:37:32.707Z,24.67
2023-03-26T19:40:34.454Z,63.93
2023-03-26T19:43:03.781Z,25.98
2023-03-26T19:45:34.967Z,13.90
2023-03-26T19:48:15.009Z,11.25
2023-03-26T19:51:01.221Z,11.10
2023-03-26T19:53:35.454Z,16.25
2023-03-26T19:56:13.500Z,17.05
2023-03-26T19:58:42.608Z,12.20
2023-03-26T20:01:23.021Z,12.95
2023-03-26T20:04:11.877Z,13.85
2023-03-26T20:06:43.817Z,9.52
2023-03-26T20:09:13.747Z,15.23
2023-03-26T20:11:42.688Z,16.30
2023-03-26T20:14:15.420Z,23.08
2023-03-26T20:16:45.577Z,20.17
2023-03-26T20:19:16.285Z,22.88
2023-03-26T20:21:45.326Z,24.60
2023-03-26T20:24:16.352Z,22.60
2023-03-26T20:26:46.318Z,22.17
2023-03-26T20:29:15.214Z,28.15
2023-03-26T20:31:43.899Z,18.30
2023-03-26T20:34:23.723Z,22.33
2023-03-26T20:36:55.566Z,27.80
2023-03-26T20:39:26.689Z,32.88
2023-03-26T20:41:56.450Z,26.75
2023-03-26T20:44:26.846Z,15.48
2023-03-26T20:46:56.665Z,18.10
2023-03-26T20:49:25.174Z,19.85
2023-03-26T20:51:52.924Z,23.02
2023-03-26T20:54:23.289Z,15.82
2023-03-26T20:56:53.667Z,20.77
2023-03-26T20:59:26.563Z,14.25
2023-03-26T21:01:57.353Z,17.67
2023-03-26T21:04:26.485Z,21.13
2023-03-26T21:07:00.351Z,17.17
2023-03-26T21:09:35.738Z,15.77
2023-03-26T21:12:08.345Z,20.35
2023-03-26T21:14:44.325Z,16.23
2023-03-26T21:17:20.799Z,17.13
2023-03-26T21:19:49.233Z,15.32
2023-03-26T21:22:35.084Z,17.38
2023-03-26T21:25:24.599Z,16.05
2023-03-26T21:28:10.385Z,22.83
2023-03-26T21:30:37.950Z,25.05
2023-03-26T21:33:06.273Z,28.98
2023-03-26T21:35:34.867Z,33.58
2023-03-26T21:38:05.079Z,33.13
2023-03-26T21:40:33.082Z,31.23
2023-03-26T21:43:01.099Z,33.55
2023-03-26T21:45:28.664Z,21.73
2023-03-26T21:47:56.830Z,20.92
2023-03-26T21:50:24.510Z,24.77
2023-03-26T21:52:52.449Z,23.83
2023-03-26T21:55:23.844Z,19.83
2023-03-26T21:57:57.039Z,19.15
2023-03-26T22:00:42.833Z,22.52
2023-03-26T22:03:22.926Z,16.25
2023-03-26T22:06:00.068Z,19.33
2023-03-26T22:08:32.586Z,18.88
2023-03-26T22:10:59.742Z,14.27
2023-03-26T22:13:27.353Z,17.15
2023-03-26T22:15:54.654Z,13.55
2023-03-26T22:18:24.536Z,16.95
2023-03-26T22:20:52.905Z,15.70
2023-03-26T22:23:20.645Z,13.68
2023-03-26T22:25:47.811Z,16.13
2023-03-26T22:28:15.367Z,12.75
2023-03-26T22:30:42.284Z,12.38
2023-03-26T22:33:12.473Z,17.70
2023-03-26T22:38:09.747Z,9.23
2023-03-26T22:40:36.770Z,14.55
2023-03-26T22:43:04.385Z,10.68
2023-03-26T22:45:32.563Z,16.52
2023-03-26T22:48:03.858Z,14.13
2023-03-26T22:50:32.457Z,19.30
2023-03-26T22:53:00.100Z,22.92
2023-03-26T22:55:28.109Z,14.13
2023-03-26T22:57:56.895Z,16.50
2023-03-26T23:00:26.458Z,13.48
2023-03-26T23:05:23.556Z,9.25
2023-03-26T23:07:52.232Z,3.15
2023-03-26T23:10:19.299Z,2.25
2023-03-26T23:12:47.043Z,1.33
2023-03-26T23:15:14.162Z,5.25
2023-03-26T23:17:41.686Z,3.47
2023-03-26T23:20:14.629Z,2.40
2023-03-26T23:22:43.034Z,3.67
2023-03-26T23:25:12.015Z,2.00
2023-03-26T23:27:41.640Z,3.20
2023-03-26T23:30:10.840Z,3.10
2023-03-26T23:32:38.460Z,1.83
2023-03-26T23:35:06.360Z,1.95
2023-03-26T23:37:35.210Z,2.95
2023-03-26T23:40:07.381Z,1.27
2023-03-26T23:42:34.945Z,3.15
2023-03-26T23:45:02.143Z,2.28
2023-03-26T23:47:34.750Z,3.25
2023-03-26T23:50:03.650Z,3.15
2023-03-26T23:52:31.714Z,4.00
2023-03-26T23:55:02.079Z,3.58
2023-03-26T23:57:30.693Z,4.45
2023-03-26T23:59:58.413Z,3.83
